createdAt,value
2018-06-25T00:02:24.104Z,5.42
2018-06-25T00:04:57.484Z,5.78
2018-06-25T00:07:30.912Z,10.32
2018-06-25T00:10:04.397Z,6.53
2018-06-25T00:12:37.844Z,9.45
2018-06-25T00:15:11.224Z,4.72
2018-06-25T00:17:44.661Z,4.47
2018-06-25T00:20:18.100Z,4.40
2018-06-25T00:22:51.535Z,4.90
2018-06-25T00:25:24.936Z,5.50
2018-06-25T00:27:58.393Z,5.20
2018-06-25T00:30:31.858Z,5.05
2018-06-25T00:33:05.317Z,5.30
2018-06-25T00:35:38.731Z,4.03
2018-06-25T00:38:12.172Z,4.20
2018-06-25T00:40:45.594Z,6.90
2018-06-25T00:43:19.007Z,4.60
2018-06-25T00:45:52.456Z,5.42
2018-06-25T00:48:25.920Z,3.95
2018-06-25T00:50:59.341Z,7.60
2018-06-25T00:53:33.317Z,4.53
2018-06-25T00:56:06.772Z,4.83
2018-06-25T00:58:51.342Z,4.35
2018-06-25T01:01:24.767Z,8.03
2018-06-25T01:03:58.155Z,5.10
2018-06-25T01:06:31.635Z,3.83
2018-06-25T01:09:08.249Z,9.33
2018-06-25T01:11:42.099Z,4.85
2018-06-25T01:14:15.526Z,4.90
2018-06-25T01:16:48.994Z,4.47
2018-06-25T01:19:22.467Z,4.20
2018-06-25T01:21:55.907Z,7.87
2018-06-25T01:24:29.304Z,4.00
2018-06-25T01:27:02.763Z,8.48
2018-06-25T01:29:36.883Z,7.50
2018-06-25T01:32:10.456Z,4.92
2018-06-25T01:34:43.857Z,9.45
2018-06-25T01:37:17.316Z,9.50
2018-06-25T01:39:50.720Z,8.23
2018-06-25T01:42:24.141Z,8.05
2018-06-25T01:44:57.541Z,5.58
2018-06-25T01:47:30.980Z,6.20
2018-06-25T01:50:04.423Z,5.78
2018-06-25T01:52:37.876Z,7.42
2018-06-25T01:55:11.280Z,4.45
2018-06-25T01:57:44.703Z,4.45
2018-06-25T02:00:18.131Z,4.95
2018-06-25T02:02:51.531Z,4.50
2018-06-25T02:05:24.972Z,4.60
2018-06-25T02:07:58.391Z,4.30
2018-06-25T02:10:32.958Z,4.65
2018-06-25T02:13:06.453Z,5.85
2018-06-25T02:15:39.862Z,7.25
2018-06-25T02:18:13.279Z,9.00
2018-06-25T02:20:46.670Z,6.35
2018-06-25T02:23:20.138Z,5.58
2018-06-25T02:25:53.525Z,5.00
2018-06-25T02:28:26.977Z,5.22
2018-06-25T02:31:00.371Z,6.55
2018-06-25T02:33:33.840Z,6.42
2018-06-25T02:36:07.310Z,5.80
2018-06-25T02:38:40.876Z,5.50
2018-06-25T02:41:14.265Z,4.30
2018-06-25T02:43:47.720Z,4.80
2018-06-25T02:46:21.128Z,7.12
2018-06-25T02:48:54.570Z,6.47
2018-06-25T02:51:27.952Z,5.08
2018-06-25T02:54:01.382Z,6.15
2018-06-25T02:56:34.794Z,8.95
2018-06-25T02:59:08.273Z,6.00
2018-06-25T03:01:41.629Z,4.53
2018-06-25T03:04:15.038Z,7.08
2018-06-25T03:06:48.546Z,4.40
2018-06-25T03:09:21.968Z,6.90
2018-06-25T03:11:55.366Z,4.78
2018-06-25T03:14:28.789Z,7.75
2018-06-25T03:17:02.177Z,6.95
2018-06-25T03:19:35.612Z,5.80
2018-06-25T03:22:09.059Z,5.08
2018-06-25T03:24:42.561Z,6.90
2018-06-25T03:27:15.980Z,6.28
2018-06-25T03:29:49.399Z,4.90
2018-06-25T03:32:22.818Z,8.25
2018-06-25T03:34:56.267Z,6.72
2018-06-25T03:37:29.657Z,8.40
2018-06-25T03:40:03.655Z,10.35
2018-06-25T03:42:37.073Z,6.62
2018-06-25T03:45:10.492Z,7.65
2018-06-25T03:47:43.904Z,10.50
2018-06-25T03:50:17.375Z,8.53
2018-06-25T03:52:50.739Z,5.05
2018-06-25T03:55:24.178Z,8.10
2018-06-25T03:57:57.571Z,6.80
2018-06-25T04:00:31.017Z,7.60
2018-06-25T04:03:04.384Z,8.75
2018-06-25T04:05:37.800Z,9.13
2018-06-25T04:08:11.197Z,9.25
2018-06-25T04:10:44.619Z,8.70
2018-06-25T04:13:18.013Z,6.60
2018-06-25T04:15:51.411Z,8.70
2018-06-25T04:18:24.815Z,8.65
2018-06-25T04:20:58.248Z,10.03
2018-06-25T04:23:31.685Z,7.42
2018-06-25T04:26:05.297Z,7.30
2018-06-25T04:28:38.763Z,11.45
2018-06-25T04:31:12.196Z,14.23
2018-06-25T04:33:46.448Z,9.55
2018-06-25T04:36:19.879Z,10.58
2018-06-25T04:38:53.345Z,6.75
2018-06-25T04:41:26.732Z,7.62
2018-06-25T04:44:00.175Z,6.97
2018-06-25T04:46:33.825Z,6.70
2018-06-25T04:49:07.300Z,8.78
2018-06-25T04:51:40.721Z,10.78
2018-06-25T04:54:14.134Z,7.20
2018-06-25T04:56:47.547Z,12.75
2018-06-25T04:59:20.993Z,15.68
2018-06-25T05:01:54.842Z,14.00
2018-06-25T05:04:28.285Z,14.63
2018-06-25T05:07:02.001Z,10.48
2018-06-25T05:09:35.425Z,14.05
2018-06-25T05:12:08.866Z,11.68
2018-06-25T05:14:42.374Z,12.30
2018-06-25T05:17:15.795Z,14.45
2018-06-25T05:19:49.258Z,11.97
2018-06-25T05:22:22.638Z,13.38
2018-06-25T05:24:56.056Z,15.68
2018-06-25T05:27:29.433Z,11.48
2018-06-25T05:30:02.914Z,16.40
2018-06-25T05:32:36.331Z,12.53
2018-06-25T05:35:09.764Z,11.50
2018-06-25T05:37:43.185Z,14.45
2018-06-25T05:40:16.602Z,10.45
2018-06-25T05:42:49.992Z,13.15
2018-06-25T05:45:23.417Z,13.38
2018-06-25T05:47:56.888Z,8.90
2018-06-25T05:50:30.402Z,12.82
2018-06-25T05:53:03.813Z,17.05
2018-06-25T05:55:37.301Z,14.65
2018-06-25T05:58:10.700Z,8.98
2018-06-25T06:00:44.187Z,14.63
2018-06-25T06:03:17.591Z,14.47
2018-06-25T06:05:51.060Z,11.63
2018-06-25T06:08:24.611Z,14.10
2018-06-25T06:10:58.064Z,12.63
2018-06-25T06:13:31.523Z,13.32
2018-06-25T06:16:04.931Z,10.85
2018-06-25T06:18:38.412Z,8.63
2018-06-25T06:21:11.813Z,15.40
2018-06-25T06:23:45.206Z,11.15
2018-06-25T06:26:18.679Z,13.13
2018-06-25T06:28:52.057Z,12.43
2018-06-25T06:31:25.488Z,10.30
2018-06-25T06:33:58.889Z,8.30
2018-06-25T06:36:32.348Z,10.28
2018-06-25T06:39:09.989Z,10.80
2018-06-25T06:41:44.431Z,13.45
2018-06-25T06:44:17.833Z,8.35
2018-06-25T06:46:51.801Z,8.78
2018-06-25T06:49:26.379Z,13.10
2018-06-25T06:51:59.811Z,7.87
2018-06-25T06:54:33.278Z,11.10
2018-06-25T06:57:06.785Z,8.70
2018-06-25T06:59:40.185Z,10.78
2018-06-25T07:02:13.633Z,7.05
2018-06-25T07:04:47.061Z,6.22
2018-06-25T07:07:20.496Z,8.45
2018-06-25T07:09:53.981Z,13.90
2018-06-25T07:12:27.403Z,10.08
2018-06-25T07:15:00.802Z,8.85
2018-06-25T07:17:34.363Z,6.45
2018-06-25T07:20:07.807Z,10.23
2018-06-25T07:22:41.278Z,8.45
2018-06-25T07:25:14.705Z,6.08
2018-06-25T07:27:48.113Z,6.08
2018-06-25T07:30:21.518Z,8.38
2018-06-25T07:32:54.928Z,7.03
2018-06-25T07:35:28.360Z,8.48
2018-06-25T07:38:01.811Z,7.92
2018-06-25T07:40:35.238Z,6.03
2018-06-25T07:43:08.699Z,11.30
2018-06-25T07:45:42.093Z,6.42
2018-06-25T07:48:15.511Z,5.65
2018-06-25T07:50:48.947Z,9.03
2018-06-25T07:53:22.414Z,7.47
2018-06-25T07:55:55.780Z,6.45
2018-06-25T07:58:29.201Z,8.88
2018-06-25T08:01:02.791Z,8.15
2018-06-25T08:03:36.182Z,8.83
2018-06-25T08:06:09.603Z,5.42
2018-06-25T08:08:42.988Z,9.78
2018-06-25T08:11:16.387Z,8.45
2018-06-25T08:13:49.811Z,9.23
2018-06-25T08:16:23.442Z,7.05
2018-06-25T08:18:56.928Z,7.85
2018-06-25T08:21:30.356Z,6.53
2018-06-25T08:24:03.747Z,6.28
2018-06-25T08:26:37.240Z,11.45
2018-06-25T08:29:10.652Z,8.45
2018-06-25T08:31:44.093Z,11.10
2018-06-25T08:34:17.625Z,8.65
2018-06-25T08:36:51.020Z,7.58
2018-06-25T08:39:24.422Z,12.10
2018-06-25T08:41:57.859Z,8.83
2018-06-25T08:44:31.249Z,9.08
2018-06-25T08:47:04.685Z,10.98
2018-06-25T08:49:38.212Z,10.88
2018-06-25T08:52:11.643Z,8.28
2018-06-25T08:54:45.120Z,11.38
2018-06-25T08:57:18.525Z,9.58
2018-06-25T08:59:51.894Z,9.65
2018-06-25T09:02:25.293Z,9.85
2018-06-25T09:04:58.679Z,12.47
2018-06-25T09:07:32.150Z,10.98
2018-06-25T09:10:05.572Z,15.60
2018-06-25T09:12:38.993Z,8.45
2018-06-25T09:15:12.437Z,12.20
2018-06-25T09:17:45.861Z,8.68
2018-06-25T09:20:19.269Z,9.88
2018-06-25T09:22:52.703Z,7.20
2018-06-25T09:25:26.102Z,12.20
2018-06-25T09:28:05.703Z,16.07
2018-06-25T09:30:39.156Z,18.30
2018-06-25T09:33:12.562Z,9.58
2018-06-25T09:35:45.982Z,10.00
2018-06-25T09:38:19.367Z,8.75
2018-06-25T09:40:52.780Z,10.18
2018-06-25T09:43:26.185Z,12.00
2018-06-25T09:45:59.631Z,8.95
2018-06-25T09:48:33.063Z,15.55
2018-06-25T09:51:06.465Z,12.47
2018-06-25T09:53:39.846Z,10.50
2018-06-25T09:56:13.215Z,9.65
2018-06-25T09:58:46.668Z,13.45
2018-06-25T10:01:20.076Z,14.73
2018-06-25T10:03:53.478Z,13.53
2018-06-25T10:06:26.868Z,13.10
2018-06-25T10:09:00.275Z,19.42
2018-06-25T10:11:33.694Z,13.15
2018-06-25T10:14:07.367Z,17.17
2018-06-25T10:16:40.784Z,12.73
2018-06-25T10:19:14.279Z,12.60
2018-06-25T10:21:47.899Z,19.27
2018-06-25T10:24:21.367Z,18.25
2018-06-25T10:26:54.793Z,17.37
2018-06-25T10:29:28.255Z,10.32
2018-06-25T10:32:01.778Z,13.00
2018-06-25T10:34:35.236Z,13.68
2018-06-25T10:37:08.672Z,9.00
2018-06-25T10:39:42.096Z,11.48
2018-06-25T10:42:20.551Z,11.97
2018-06-25T10:44:53.996Z,14.95
2018-06-25T10:47:27.418Z,16.40
2018-06-25T10:50:00.821Z,8.03
2018-06-25T10:52:34.231Z,14.05
2018-06-25T10:55:08.072Z,13.28
2018-06-25T10:57:41.534Z,15.20
2018-06-25T11:00:15.188Z,11.53
2018-06-25T11:02:48.496Z,9.78
2018-06-25T11:05:21.913Z,13.00
2018-06-25T11:07:55.404Z,12.00
2018-06-25T11:10:28.835Z,9.15
2018-06-25T11:13:02.296Z,8.10
2018-06-25T11:15:35.692Z,14.10
2018-06-25T11:18:09.133Z,9.05
2018-06-25T11:20:42.561Z,8.48
2018-06-25T11:23:16.001Z,8.63
2018-06-25T11:25:49.384Z,9.28
2018-06-25T11:28:24.004Z,13.32
2018-06-25T11:30:57.403Z,14.47
2018-06-25T11:33:30.827Z,20.88
2018-06-25T11:36:04.252Z,15.98
2018-06-25T11:38:37.672Z,14.55
2018-06-25T11:41:11.082Z,14.78
2018-06-25T11:43:44.580Z,20.62
2018-06-25T11:46:17.983Z,17.92
2018-06-25T11:48:51.409Z,14.90
2018-06-25T11:51:24.802Z,19.65
2018-06-25T11:53:58.239Z,13.45
2018-06-25T11:56:32.804Z,16.62
2018-06-25T11:59:06.322Z,16.85
2018-06-25T12:01:39.783Z,19.80
2018-06-25T12:04:13.178Z,15.25
2018-06-25T12:06:46.601Z,13.98
2018-06-25T12:09:20.047Z,13.48
2018-06-25T12:11:53.464Z,20.65
2018-06-25T12:14:26.908Z,20.65
2018-06-25T12:17:00.328Z,14.63
2018-06-25T12:19:33.797Z,11.73
2018-06-25T12:22:07.303Z,25.12
2018-06-25T12:24:40.752Z,11.38
2018-06-25T12:27:14.178Z,14.98
2018-06-25T12:29:47.684Z,16.20
2018-06-25T12:32:21.132Z,17.95
2018-06-25T12:34:54.572Z,16.55
2018-06-25T12:37:27.985Z,15.98
2018-06-25T12:40:01.453Z,13.15
2018-06-25T12:42:34.856Z,17.92
2018-06-25T12:45:08.325Z,11.10
2018-06-25T12:47:41.767Z,16.93
2018-06-25T12:50:15.265Z,17.98
2018-06-25T12:52:48.707Z,18.42
2018-06-25T12:55:22.151Z,13.00
2018-06-25T12:57:55.650Z,16.42
2018-06-25T13:00:29.138Z,14.07
2018-06-25T13:03:02.575Z,19.75
2018-06-25T13:05:35.988Z,15.60
2018-06-25T13:08:09.421Z,17.40
2018-06-25T13:10:45.768Z,19.12
2018-06-25T13:13:19.181Z,19.82
2018-06-25T13:15:52.592Z,16.93
2018-06-25T13:18:26.032Z,17.20
2018-06-25T13:20:59.470Z,16.25
2018-06-25T13:23:32.917Z,16.15
2018-06-25T13:26:06.377Z,14.60
2018-06-25T13:28:39.849Z,15.75
2018-06-25T13:31:13.394Z,15.85
2018-06-25T13:33:46.883Z,17.95
2018-06-25T13:36:20.419Z,20.08
2018-06-25T13:38:53.863Z,18.23
2018-06-25T13:41:27.354Z,18.07
2018-06-25T13:44:01.211Z,13.50
2018-06-25T13:46:34.952Z,14.45
2018-06-25T13:49:08.372Z,16.10
2018-06-25T13:51:42.143Z,16.75
2018-06-25T13:54:15.528Z,15.38
2018-06-25T13:56:49.012Z,14.73
2018-06-25T13:59:22.391Z,13.70
2018-06-25T14:01:55.895Z,17.17
2018-06-25T14:04:29.331Z,16.57
2018-06-25T14:07:02.793Z,19.20
2018-06-25T14:09:36.181Z,16.70
2018-06-25T14:12:09.701Z,15.48
2018-06-25T14:14:43.552Z,15.78
2018-06-25T14:17:16.967Z,18.30
2018-06-25T14:19:50.455Z,16.17
2018-06-25T14:22:23.947Z,15.00
2018-06-25T14:24:59.284Z,13.20
2018-06-25T14:27:38.757Z,11.12
2018-06-25T14:30:17.457Z,18.70
2018-06-25T14:32:55.978Z,17.70
2018-06-25T14:35:29.437Z,11.60
2018-06-25T14:38:02.927Z,11.08
2018-06-25T14:40:36.430Z,15.53
2018-06-25T14:43:09.899Z,15.93
2018-06-25T14:45:43.390Z,12.45
2018-06-25T14:48:16.950Z,13.32
2018-06-25T14:50:50.466Z,17.15
2018-06-25T14:53:23.905Z,16.05
2018-06-25T14:55:57.484Z,15.78
2018-06-25T14:58:30.959Z,18.67
2018-06-25T15:01:04.444Z,12.43
2018-06-25T15:03:37.872Z,17.12
2018-06-25T15:06:11.308Z,14.30
2018-06-25T15:08:44.735Z,17.10
2018-06-25T15:11:18.225Z,10.90
2018-06-25T15:13:51.729Z,15.20
2018-06-25T15:16:25.179Z,16.42
2018-06-25T15:18:58.603Z,15.85
2018-06-25T15:21:32.177Z,13.85
2018-06-25T15:24:05.646Z,11.60
2018-06-25T15:26:39.116Z,13.15
2018-06-25T15:29:12.609Z,12.33
2018-06-25T15:31:46.245Z,9.23
2018-06-25T15:34:19.673Z,13.18
2018-06-25T15:36:53.108Z,10.70
2018-06-25T15:39:26.619Z,11.85
2018-06-25T15:42:00.063Z,13.25
2018-06-25T15:44:33.552Z,9.25
2018-06-25T15:47:07.031Z,14.70
2018-06-25T15:49:40.758Z,15.93
2018-06-25T15:52:14.239Z,11.90
2018-06-25T15:54:47.795Z,11.95
2018-06-25T15:57:21.255Z,9.55
2018-06-25T15:59:54.819Z,10.80
2018-06-25T16:02:28.328Z,14.43
2018-06-25T16:05:01.915Z,13.15
2018-06-25T16:07:35.481Z,12.68
2018-06-25T16:10:08.901Z,11.03
2018-06-25T16:12:42.438Z,15.08
2018-06-25T16:15:15.853Z,13.05
2018-06-25T16:17:49.403Z,12.70
2018-06-25T16:20:22.838Z,12.80
2018-06-25T16:22:56.320Z,10.32
2018-06-25T16:25:29.766Z,10.35
2018-06-25T16:28:03.973Z,12.45
2018-06-25T16:30:37.499Z,14.98
2018-06-25T16:33:11.032Z,13.75
2018-06-25T16:35:44.478Z,12.90
2018-06-25T16:38:18.063Z,12.15
2018-06-25T16:40:53.074Z,15.85
2018-06-25T16:43:27.915Z,14.60
2018-06-25T16:46:04.364Z,12.13
2018-06-25T16:48:38.264Z,10.95
2018-06-25T16:51:12.594Z,13.72
2018-06-25T16:53:46.169Z,17.10
2018-06-25T16:56:19.603Z,9.33
2018-06-25T16:58:53.064Z,12.35
2018-06-25T17:01:26.552Z,16.75
2018-06-25T17:04:00.028Z,12.98
2018-06-25T17:06:34.151Z,12.88
2018-06-25T17:09:10.297Z,13.22
2018-06-25T17:11:44.213Z,9.53
2018-06-25T17:14:17.699Z,12.45
2018-06-25T17:16:51.186Z,11.43
2018-06-25T17:19:24.711Z,9.10
2018-06-25T17:21:58.188Z,17.10
2018-06-25T17:24:31.775Z,14.30
2018-06-25T17:27:05.334Z,11.80
2018-06-25T17:29:38.771Z,11.28
2018-06-25T17:32:12.331Z,17.17
2018-06-25T17:34:45.771Z,13.75
2018-06-25T17:37:19.539Z,13.58
2018-06-25T17:39:53.068Z,16.57
2018-06-25T17:42:26.542Z,14.58
2018-06-25T17:45:00.001Z,15.90
2018-06-25T17:47:33.530Z,12.85
2018-06-25T17:50:07.101Z,13.70
2018-06-25T17:52:40.540Z,13.48
2018-06-25T17:55:14.030Z,11.65
2018-06-25T17:57:47.473Z,15.68
2018-06-25T18:00:20.931Z,14.93
2018-06-25T18:02:54.409Z,11.10
2018-06-25T18:05:27.948Z,9.70
2018-06-25T18:08:01.445Z,16.00
2018-06-25T18:10:34.942Z,13.15
2018-06-25T18:13:08.471Z,10.65
2018-06-25T18:15:41.943Z,9.55
2018-06-25T18:18:15.493Z,9.50
2018-06-25T18:20:49.042Z,6.47
2018-06-25T18:23:22.517Z,7.42
2018-06-25T18:25:55.929Z,7.95
2018-06-25T18:28:29.354Z,10.28
2018-06-25T18:31:02.867Z,7.67
2018-06-25T18:33:36.307Z,7.65
2018-06-25T18:36:09.899Z,7.20
2018-06-25T18:38:43.513Z,8.55
2018-06-25T18:41:17.300Z,6.97
2018-06-25T18:43:51.071Z,13.85
2018-06-25T18:46:24.599Z,7.75
2018-06-25T18:48:58.027Z,11.00
2018-06-25T18:51:31.577Z,7.72
2018-06-25T18:54:05.592Z,9.78
2018-06-25T18:56:39.729Z,4.72
2018-06-25T18:59:13.159Z,5.42
2018-06-25T19:01:46.599Z,12.23
2018-06-25T19:04:20.093Z,7.17
2018-06-25T19:06:53.970Z,6.97
2018-06-25T19:09:27.428Z,10.43
2018-06-25T19:12:00.977Z,9.30
2018-06-25T19:14:34.431Z,8.70
2018-06-25T19:17:07.819Z,8.85
2018-06-25T19:19:41.440Z,9.25
2018-06-25T19:22:14.893Z,8.65
2018-06-25T19:24:48.454Z,9.43
2018-06-25T19:27:21.904Z,7.10
2018-06-25T19:29:55.387Z,7.05
2018-06-25T19:32:28.882Z,6.05
2018-06-25T19:35:02.322Z,8.05
2018-06-25T19:37:35.827Z,8.53
2018-06-25T19:40:09.347Z,7.00
2018-06-25T19:42:42.817Z,6.28
2018-06-25T19:45:16.255Z,8.08
2018-06-25T19:47:49.710Z,5.42
2018-06-25T19:50:23.985Z,7.85
2018-06-25T19:52:57.541Z,8.68
2018-06-25T19:55:31.162Z,5.78
2018-06-25T19:58:04.659Z,7.58
2018-06-25T20:00:38.136Z,7.75
2018-06-25T20:03:11.571Z,8.03
2018-06-25T20:05:45.042Z,10.75
2018-06-25T20:08:18.554Z,6.47
2018-06-25T20:10:52.762Z,6.42
2018-06-25T20:13:26.304Z,5.58
2018-06-25T20:15:59.767Z,6.65
2018-06-25T20:18:33.245Z,6.80
2018-06-25T20:21:06.859Z,5.62
2018-06-25T20:23:40.291Z,5.35
2018-06-25T20:26:13.835Z,4.42
2018-06-25T20:28:47.178Z,4.45
2018-06-25T20:31:20.645Z,5.03
2018-06-25T20:33:54.130Z,5.58
2018-06-25T20:36:27.597Z,7.10
2018-06-25T20:39:01.059Z,6.47
2018-06-25T20:41:34.687Z,7.95
2018-06-25T20:44:08.203Z,7.17
2018-06-25T20:46:41.644Z,7.67
2018-06-25T20:49:15.100Z,8.93
2018-06-25T20:51:48.573Z,6.67
2018-06-25T20:54:22.030Z,6.65
2018-06-25T20:56:55.623Z,4.47
2018-06-25T20:59:28.967Z,5.95
2018-06-25T21:02:02.469Z,5.50
2018-06-25T21:04:36.085Z,6.22
2018-06-25T21:07:09.556Z,4.97
2018-06-25T21:09:42.975Z,6.10
2018-06-25T21:12:16.379Z,4.37
2018-06-25T21:14:49.805Z,4.67
2018-06-25T21:17:23.224Z,5.53
2018-06-25T21:19:56.717Z,6.12
2018-06-25T21:22:30.138Z,6.90
2018-06-25T21:25:03.661Z,7.83
2018-06-25T21:27:37.102Z,9.45
2018-06-25T21:30:10.529Z,5.72
2018-06-25T21:32:43.948Z,8.38
2018-06-25T21:35:17.385Z,5.62
2018-06-25T21:37:50.775Z,6.17
2018-06-25T21:40:24.192Z,5.75
2018-06-25T21:42:57.598Z,4.47
2018-06-25T21:45:31.090Z,4.75
2018-06-25T21:48:04.520Z,5.33
2018-06-25T21:50:37.952Z,7.58
2018-06-25T21:53:11.378Z,5.55
2018-06-25T21:55:44.803Z,5.15
2018-06-25T21:58:18.220Z,5.87
2018-06-25T22:00:52.963Z,4.95
2018-06-25T22:03:26.380Z,7.78
2018-06-25T22:05:59.808Z,6.85
2018-06-25T22:08:33.230Z,6.05
2018-06-25T22:11:06.800Z,7.53
2018-06-25T22:13:40.218Z,5.28
2018-06-25T22:16:13.679Z,5.65
2018-06-25T22:18:47.129Z,5.22
2018-06-25T22:21:20.593Z,5.67
2018-06-25T22:23:54.000Z,8.18
2018-06-25T22:26:27.439Z,6.20
2018-06-25T22:29:01.972Z,5.95
2018-06-25T22:31:35.761Z,8.45
2018-06-25T22:34:09.196Z,5.80
2018-06-25T22:36:42.634Z,5.15
2018-06-25T22:39:16.256Z,7.95
2018-06-25T22:41:49.907Z,7.62
2018-06-25T22:44:23.376Z,7.90
2018-06-25T22:46:56.943Z,5.25
2018-06-25T22:49:30.464Z,5.22
2018-06-25T22:52:04.155Z,6.65
2018-06-25T22:54:37.691Z,6.85
2018-06-25T22:57:11.309Z,7.08
2018-06-25T22:59:44.864Z,8.55
2018-06-25T23:02:18.478Z,5.72
2018-06-25T23:04:51.884Z,8.60
2018-06-25T23:07:25.428Z,5.97
2018-06-25T23:09:58.834Z,5.35
2018-06-25T23:12:32.255Z,6.85
2018-06-25T23:15:05.684Z,6.70
2018-06-25T23:17:39.150Z,5.05
2018-06-25T23:20:12.571Z,5.58
2018-06-25T23:22:46.932Z,6.92
2018-06-25T23:25:20.328Z,8.53
2018-06-25T23:27:53.878Z,5.60
2018-06-25T23:30:27.293Z,4.80
2018-06-25T23:33:00.738Z,5.40
2018-06-25T23:35:34.218Z,6.08
2018-06-25T23:38:07.723Z,5.60
2018-06-25T23:40:41.160Z,6.47
2018-06-25T23:43:14.592Z,5.37
2018-06-25T23:45:47.992Z,8.85
2018-06-25T23:48:21.404Z,6.17
2018-06-25T23:50:54.848Z,8.55
2018-06-25T23:53:28.288Z,7.83
2018-06-25T23:56:01.705Z,8.30
2018-06-25T23:58:35.125Z,5.37
